Delta Ocean — SVAU9 — position and weather

sailwx.info

Track history (hours):
 
Tides and Currents Weather Stations Pressure Air Temp Water Temp Dewpoint Dewpoint Depression Visibility Wind Speed Wind Dir Waves Ship Positions

Delta Ocean

Last reported at 2017-Jul-29 06:18 UTC. Time now 2017-Aug-18 10:34 UTC.
Position S 30°27' E 036°28'.
Warning: this ship's position is 20 days out of date.

Length 274 m; draft 9 m.

Type: Tanker. MMSI: 240958000.

Date/timePositionNaut miles runAvg speedWind from/ knotsBaromVisibWave heightAir tempDewpointWater temp
2017-Jul-29 06:18S 30°27' E 036°28'22711.8
2017-Jul-28 11:01S 32°00' E 032°26'112.5
2017-Jul-28 10:57S 32°01' E 032°25'6011.9
2017-Jul-28 05:54S 32°26' E 031°21'911.9
2017-Jul-28 05:06S 32°29' E 031°10'311.3
2017-Jul-28 04:50S 32°31' E 031°07'511.3
2017-Jul-28 04:24S 32°33' E 031°01'1411.6
2017-Jul-28 03:10S 32°38' E 030°46'211.6
2017-Jul-28 03:00S 32°39' E 030°44'611.5
2017-Jul-28 02:30S 32°41' E 030°38'611.4
2017-Jul-28 02:00S 32°44' E 030°31'611.2
2017-Jul-28 01:30S 32°46' E 030°25'1310.9
2017-Jul-28 00:16S 32°52' E 030°11'1111.2
2017-Jul-27 23:19S 32°56' E 029°59'311.2
2017-Jul-27 23:00S 32°58' E 029°56'  
Track history (hours):
 
Tides and Currents Weather Stations Pressure Air Temp Water Temp Dewpoint Dewpoint Depression Visibility Wind Speed Wind Dir Waves Ship Positions

Delta Ocean

Last reported at 2017-Jul-29 06:18 UTC. Time now 2017-Aug-18 10:34 UTC.
Position S 30°27' E 036°28'.
Warning: this ship's position is 20 days out of date.

Length 274 m; draft 9 m.

Type: Tanker. MMSI: 240958000.

Date/timePositionNaut miles runAvg speedWind from/ knotsBaromVisibWave heightAir tempDewpointWater temp
2017-Jul-29 06:18S 30°27' E 036°28'22711.8
2017-Jul-28 11:01S 32°00' E 032°26'112.5
2017-Jul-28 10:57S 32°01' E 032°25'6011.9
2017-Jul-28 05:54S 32°26' E 031°21'911.9
2017-Jul-28 05:06S 32°29' E 031°10'311.3
2017-Jul-28 04:50S 32°31' E 031°07'511.3
2017-Jul-28 04:24S 32°33' E 031°01'1411.6
2017-Jul-28 03:10S 32°38' E 030°46'211.6
2017-Jul-28 03:00S 32°39' E 030°44'611.5
2017-Jul-28 02:30S 32°41' E 030°38'611.4
2017-Jul-28 02:00S 32°44' E 030°31'611.2
2017-Jul-28 01:30S 32°46' E 030°25'1310.9
2017-Jul-28 00:16S 32°52' E 030°11'1111.2
2017-Jul-27 23:19S 32°56' E 029°59'311.2
2017-Jul-27 23:00S 32°58' E 029°56'  

Dump ship's entire track history